createdAt,value
2023-10-24T00:01:48.997Z,62331.81
2023-10-24T00:04:17.283Z,62326.41
2023-10-24T00:06:46.763Z,62326.41
2023-10-24T00:09:14.831Z,62316.69
2023-10-24T00:11:42.838Z,62317.81
2023-10-24T00:14:10.847Z,62327.56
2023-10-24T00:16:38.992Z,62314.59
2023-10-24T00:19:07.116Z,62311.34
2023-10-24T00:21:35.276Z,62321.56
2023-10-24T00:24:05.079Z,62317.28
2023-10-24T00:26:33.102Z,62321.69
2023-10-24T00:29:01.120Z,62324.91
2023-10-24T00:31:29.261Z,62322.69
2023-10-24T00:33:57.342Z,62328.66
2023-10-24T00:36:25.387Z,62328.13
2023-10-24T00:38:53.427Z,62328.66
2023-10-24T00:41:22.835Z,62318.97
2023-10-24T00:43:50.895Z,62326.41
2023-10-24T00:46:19.252Z,62323.31
2023-10-24T00:48:47.437Z,62329.66
2023-10-24T00:51:15.677Z,62318.97
2023-10-24T00:53:44.820Z,62314.06
2023-10-24T00:56:14.272Z,62315.59
2023-10-24T00:58:45.058Z,62310.41
2023-10-24T01:01:15.353Z,62300.59
2023-10-24T01:03:45.327Z,62309.19
2023-10-24T01:06:14.137Z,62318.84
2023-10-24T01:08:42.242Z,62291.34
2023-10-24T01:11:10.556Z,62309.72
2023-10-24T01:13:38.833Z,62314.53
2023-10-24T01:16:08.471Z,62309.25
2023-10-24T01:18:36.616Z,62308.19
2023-10-24T01:21:06.130Z,62321.56
2023-10-24T01:23:35.612Z,62314.06
2023-10-24T01:26:05.069Z,62315.28
2023-10-24T01:28:33.379Z,62312.44
2023-10-24T01:31:01.577Z,62323.25
2023-10-24T01:33:30.804Z,62307.03
2023-10-24T01:35:58.884Z,62321.16
2023-10-24T01:38:27.530Z,62320.53
2023-10-24T01:40:56.968Z,62323.31
2023-10-24T01:43:25.144Z,62323.78
2023-10-24T01:45:53.254Z,62309.25
2023-10-24T01:48:21.562Z,62327.66
2023-10-24T01:50:48.859Z,62339.06
2023-10-24T01:53:16.872Z,62367.53
2023-10-24T01:55:45.024Z,62362.75
2023-10-24T01:58:14.461Z,62399.50
2023-10-24T02:00:42.573Z,62401.22
2023-10-24T02:03:10.681Z,62393.50
2023-10-24T02:05:39.992Z,62423.94
2023-10-24T02:08:08.364Z,62438.00
2023-10-24T02:10:36.432Z,62449.22
2023-10-24T02:13:04.534Z,62452.16
2023-10-24T02:15:33.967Z,62463.91
2023-10-24T02:18:02.047Z,62462.75
2023-10-24T02:20:30.125Z,62477.31
2023-10-24T02:22:58.231Z,62477.78
2023-10-24T02:25:26.709Z,62479.63
2023-10-24T02:27:54.947Z,62485.03
2023-10-24T02:30:23.729Z,62483.47
2023-10-24T02:32:53.216Z,62481.31
2023-10-24T02:35:21.222Z,62498.63
2023-10-24T02:37:49.347Z,62506.69
2023-10-24T02:40:17.497Z,62502.41
2023-10-24T02:42:45.563Z,62508.84
2023-10-24T02:45:13.580Z,62499.78
2023-10-24T02:47:41.687Z,62522.97
2023-10-24T02:50:11.606Z,62520.78
2023-10-24T02:52:39.787Z,62519.72
2023-10-24T02:55:10.223Z,62520.78
2023-10-24T02:57:38.360Z,62523.44
2023-10-24T03:00:08.082Z,62510.56
2023-10-24T03:02:36.174Z,62506.16
2023-10-24T03:05:04.257Z,62507.78
2023-10-24T03:07:33.808Z,62499.72
2023-10-24T03:10:01.913Z,62495.78
2023-10-24T03:12:29.961Z,62497.53
2023-10-24T03:14:58.016Z,62519.16
2023-10-24T03:17:27.802Z,62527.84
2023-10-24T03:19:56.081Z,62531.13
2023-10-24T03:22:24.394Z,62534.41
2023-10-24T03:24:53.960Z,62527.97
2023-10-24T03:27:22.093Z,62536.44
2023-10-24T03:29:50.313Z,62539.75
2023-10-24T03:32:18.328Z,62558.63
2023-10-24T03:34:46.400Z,62543.59
2023-10-24T03:37:14.637Z,62556.00
2023-10-24T03:39:42.746Z,62549.09
2023-10-24T03:42:14.898Z,62570.09
2023-10-24T03:44:43.206Z,62536.63
2023-10-24T03:47:11.464Z,62540.88
2023-10-24T03:49:39.741Z,62539.81
2023-10-24T03:52:08.253Z,62556.06
2023-10-24T03:54:36.297Z,62566.31
2023-10-24T03:57:04.799Z,62565.19
2023-10-24T03:59:34.230Z,62569.00
2023-10-24T04:02:02.274Z,62569.06
2023-10-24T04:04:32.309Z,62566.91
2023-10-24T04:07:00.928Z,62557.69
2023-10-24T04:09:38.757Z,62569.00
2023-10-24T04:12:08.090Z,62549.50
2023-10-24T04:14:36.564Z,62550.09
2023-10-24T04:17:04.987Z,62550.63
2023-10-24T04:19:33.150Z,62546.19
2023-10-24T04:22:01.343Z,62533.84
2023-10-24T04:24:29.379Z,62540.81
2023-10-24T04:26:57.444Z,62534.94
2023-10-24T04:29:25.690Z,62527.41
2023-10-24T04:31:55.107Z,62535.94
2023-10-24T04:34:23.163Z,62520.78
2023-10-24T04:36:51.315Z,62526.19
2023-10-24T04:39:19.472Z,62534.34
2023-10-24T04:41:49.695Z,62526.81
2023-10-24T04:44:17.713Z,62520.91
2023-10-24T04:46:45.790Z,62528.38
2023-10-24T04:49:17.280Z,62526.25
2023-10-24T04:51:45.561Z,62518.69
2023-10-24T04:54:13.660Z,62507.50
2023-10-24T04:56:41.807Z,62535.00
2023-10-24T04:59:09.857Z,62555.03
2023-10-24T05:01:40.041Z,62565.75
2023-10-24T05:04:08.397Z,62563.72
2023-10-24T05:06:37.904Z,62539.22
2023-10-24T05:09:07.542Z,62541.97
2023-10-24T05:11:37.330Z,62530.00
2023-10-24T05:14:05.417Z,62540.34
2023-10-24T05:16:33.914Z,62526.19
2023-10-24T05:19:02.068Z,62539.13
2023-10-24T05:21:30.104Z,62530.06
2023-10-24T05:24:00.267Z,62530.00
2023-10-24T05:26:28.361Z,62527.34
2023-10-24T05:28:56.558Z,62524.59
2023-10-24T05:31:24.744Z,62523.44
2023-10-24T05:33:52.864Z,62511.63
2023-10-24T05:36:20.948Z,62500.81
2023-10-24T05:38:49.036Z,62515.81
2023-10-24T05:41:18.499Z,62510.41
2023-10-24T05:43:46.646Z,62504.59
2023-10-24T05:46:15.277Z,62502.97
2023-10-24T05:48:43.351Z,62505.13
2023-10-24T05:51:11.902Z,62502.97
2023-10-24T05:53:39.944Z,62510.47
2023-10-24T05:56:08.845Z,62498.63
2023-10-24T05:58:38.349Z,62502.41
2023-10-24T06:01:07.084Z,62505.06
2023-10-24T06:03:35.288Z,62499.72
2023-10-24T06:06:03.462Z,62506.69
2023-10-24T06:08:31.717Z,62494.28
2023-10-24T06:11:00.497Z,62487.72
2023-10-24T06:13:28.958Z,62473.25
2023-10-24T06:16:08.329Z,62500.19
2023-10-24T06:18:36.452Z,62496.94
2023-10-24T06:21:08.702Z,62509.44
2023-10-24T06:23:39.196Z,62511.56
2023-10-24T06:26:14.475Z,62508.84
2023-10-24T06:28:42.568Z,62497.53
2023-10-24T06:31:12.205Z,62503.03
2023-10-24T06:33:41.797Z,62508.84
2023-10-24T06:36:10.696Z,62503.03
2023-10-24T06:38:38.770Z,62503.97
2023-10-24T06:41:09.249Z,62505.00
2023-10-24T06:43:37.654Z,62489.41
2023-10-24T06:46:06.755Z,62492.66
2023-10-24T06:48:36.808Z,62505.59
2023-10-24T06:51:05.027Z,62515.97
2023-10-24T06:53:33.086Z,62521.38
2023-10-24T06:56:01.789Z,62525.66
2023-10-24T06:58:30.476Z,62540.75
2023-10-24T07:00:58.608Z,62540.22
2023-10-24T07:03:26.707Z,62541.44
2023-10-24T07:05:56.872Z,62544.63
2023-10-24T07:08:25.212Z,62517.06
2023-10-24T07:10:53.319Z,62516.44
2023-10-24T07:13:21.663Z,62527.28
2023-10-24T07:15:50.343Z,62525.13
2023-10-24T07:18:18.899Z,62505.13
2023-10-24T07:20:47.276Z,62519.06
2023-10-24T07:27:16.560Z,62494.28
2023-10-24T07:29:44.733Z,62513.25
2023-10-24T07:32:13.100Z,62500.59
2023-10-24T07:34:42.959Z,62505.06
2023-10-24T07:37:11.763Z,62510.47
2023-10-24T07:39:40.293Z,62530.06
2023-10-24T07:42:10.316Z,62515.44
2023-10-24T07:44:40.528Z,62529.47
2023-10-24T07:47:09.351Z,62543.59
2023-10-24T07:49:37.758Z,62521.88
2023-10-24T07:52:06.613Z,62537.78
2023-10-24T07:54:34.833Z,62528.38
2023-10-24T07:57:05.859Z,62522.34
2023-10-24T07:59:35.419Z,62528.84
2023-10-24T08:02:05.187Z,62530.53
2023-10-24T08:04:33.649Z,62513.78
2023-10-24T08:07:03.324Z,62542.47
2023-10-24T08:09:31.797Z,62526.75
2023-10-24T08:12:01.088Z,62527.91
2023-10-24T08:14:29.418Z,62520.31
2023-10-24T08:16:59.608Z,62535.47
2023-10-24T08:19:29.338Z,62532.22
2023-10-24T08:21:57.565Z,62540.28
2023-10-24T08:24:25.799Z,62529.53
2023-10-24T08:27:09.968Z,62546.25
2023-10-24T08:29:40.635Z,62551.66
2023-10-24T08:32:14.474Z,62531.75
2023-10-24T08:34:45.598Z,62522.50
2023-10-24T08:37:14.397Z,62555.38
2023-10-24T08:39:42.794Z,62538.13
2023-10-24T08:42:13.434Z,62528.50
2023-10-24T08:44:43.210Z,62553.97
2023-10-24T08:47:12.356Z,62549.97
2023-10-24T08:49:41.961Z,62541.38
2023-10-24T08:52:29.094Z,62522.00
2023-10-24T08:55:00.602Z,62537.03
2023-10-24T08:57:32.118Z,62532.72
2023-10-24T09:00:01.624Z,62533.38
2023-10-24T09:02:31.734Z,62537.03
2023-10-24T09:05:02.105Z,62537.03
2023-10-24T09:07:32.042Z,62542.41
2023-10-24T09:10:00.450Z,62531.13
2023-10-24T09:12:31.307Z,62545.28
2023-10-24T09:15:00.706Z,62535.94
2023-10-24T09:17:29.396Z,62547.41
2023-10-24T09:19:58.459Z,62548.41
2023-10-24T09:22:31.473Z,62535.34
2023-10-24T09:25:03.181Z,62541.31
2023-10-24T09:27:31.477Z,62559.19
2023-10-24T09:29:59.787Z,62539.28
2023-10-24T09:32:29.141Z,62545.75
2023-10-24T09:34:57.473Z,62536.56
2023-10-24T09:37:25.962Z,62549.56
2023-10-24T09:39:58.413Z,62552.16
2023-10-24T09:42:32.899Z,62543.53
2023-10-24T09:45:05.852Z,62533.31
2023-10-24T09:47:35.128Z,62541.50
2023-10-24T09:50:06.518Z,62535.94
2023-10-24T09:52:35.137Z,62545.22
2023-10-24T09:55:04.412Z,62548.97
2023-10-24T09:57:34.890Z,62566.31
2023-10-24T10:00:05.106Z,62547.47
2023-10-24T10:02:33.520Z,62557.75
2023-10-24T10:05:02.160Z,62545.16
2023-10-24T10:07:30.967Z,62534.81
2023-10-24T10:10:01.199Z,62558.16
2023-10-24T10:12:30.554Z,62542.47
2023-10-24T10:15:13.121Z,62536.56
2023-10-24T10:17:48.802Z,62543.22
2023-10-24T10:20:32.728Z,62546.78
2023-10-24T10:23:17.483Z,62548.56
2023-10-24T10:25:57.240Z,62553.84
2023-10-24T10:28:52.398Z,62565.81
2023-10-24T10:32:37.493Z,62575.56
2023-10-24T10:34:39.029Z,62563.03
2023-10-24T10:37:08.101Z,62568.94
2023-10-24T10:39:36.290Z,62583.69
2023-10-24T10:42:04.621Z,62554.44
2023-10-24T10:44:44.751Z,62554.91
2023-10-24T10:47:17.473Z,62576.06
2023-10-24T10:49:51.217Z,62574.97
2023-10-24T10:52:45.979Z,62574.41
2023-10-24T10:55:28.984Z,62583.69
2023-10-24T10:58:05.113Z,62578.13
2023-10-24T11:00:42.894Z,62561.97
2023-10-24T11:03:29.534Z,62546.22
2023-10-24T11:05:58.211Z,62558.31
2023-10-24T11:08:26.640Z,62564.66
2023-10-24T11:10:58.183Z,62580.94
2023-10-24T11:13:41.875Z,62577.19
2023-10-24T11:16:21.259Z,62569.59
2023-10-24T11:18:56.118Z,62600.38
2023-10-24T11:21:24.670Z,62602.06
2023-10-24T11:23:53.309Z,62588.56
2023-10-24T11:26:21.742Z,62588.50
2023-10-24T11:28:50.129Z,62609.63
2023-10-24T11:31:23.057Z,62569.25
2023-10-24T11:33:52.020Z,62588.69
2023-10-24T11:36:22.325Z,62602.13
2023-10-24T11:38:50.595Z,62597.19
2023-10-24T11:41:18.734Z,62584.16
2023-10-24T11:43:49.625Z,62591.22
2023-10-24T11:46:17.994Z,62603.34
2023-10-24T11:48:46.253Z,62599.34
2023-10-24T11:51:14.824Z,62598.81
2023-10-24T11:53:46.136Z,62594.00
2023-10-24T11:56:14.725Z,62577.81
2023-10-24T11:58:44.135Z,62612.91
2023-10-24T12:01:13.164Z,62612.50
2023-10-24T12:03:49.019Z,62602.06
2023-10-24T12:06:20.017Z,62596.22
2023-10-24T12:08:50.124Z,62604.22
2023-10-24T12:11:19.120Z,62592.44
2023-10-24T12:13:48.323Z,62590.13
2023-10-24T12:16:17.263Z,62579.91
2023-10-24T12:18:45.543Z,62595.69
2023-10-24T12:21:15.336Z,62617.25
2023-10-24T12:23:43.619Z,62644.34
2023-10-24T12:26:13.453Z,62618.38
2023-10-24T12:28:44.326Z,62650.38
2023-10-24T12:31:13.597Z,62634.66
2023-10-24T12:33:42.120Z,62641.06
2023-10-24T12:36:10.491Z,62640.66
2023-10-24T12:38:39.965Z,62647.59
2023-10-24T12:41:08.302Z,62641.16
2023-10-24T12:43:38.116Z,62650.44
2023-10-24T12:46:06.484Z,62636.81
2023-10-24T12:48:40.313Z,62639.53
2023-10-24T12:51:15.025Z,62651.47
2023-10-24T12:53:43.276Z,62639.47
2023-10-24T12:56:11.725Z,62674.72
2023-10-24T12:58:41.514Z,62671.00
2023-10-24T13:01:11.486Z,62666.13
2023-10-24T13:03:40.009Z,62672.13
2023-10-24T13:06:08.910Z,62667.72
2023-10-24T13:08:37.176Z,62677.50
2023-10-24T13:11:05.734Z,62652.53
2023-10-24T13:13:34.083Z,62646.09
2023-10-24T13:16:03.983Z,62654.16
2023-10-24T13:18:32.510Z,62686.25
2023-10-24T13:21:00.903Z,62699.19
2023-10-24T13:23:29.459Z,62705.78
2023-10-24T13:25:57.911Z,62730.06
2023-10-24T13:28:26.588Z,62740.44
2023-10-24T13:31:11.357Z,62733.94
2023-10-24T13:34:20.475Z,62744.19
2023-10-24T13:36:33.890Z,62718.72
2023-10-24T13:39:02.638Z,62722.47
2023-10-24T13:41:31.115Z,62714.41
2023-10-24T13:44:00.025Z,62719.28
2023-10-24T13:46:28.670Z,62714.94
2023-10-24T13:48:59.268Z,62718.13
2023-10-24T13:51:27.758Z,62734.94
2023-10-24T13:53:57.143Z,62724.03
2023-10-24T13:56:26.061Z,62706.13
2023-10-24T13:58:54.874Z,62725.19
2023-10-24T14:01:41.232Z,62712.22
2023-10-24T14:04:13.271Z,62738.19
2023-10-24T14:06:41.418Z,62733.84
2023-10-24T14:09:09.605Z,62731.81
2023-10-24T14:11:37.877Z,62717.66
2023-10-24T14:14:06.206Z,62720.34
2023-10-24T14:16:34.900Z,62742.53
2023-10-24T14:19:03.139Z,62718.25
2023-10-24T14:21:34.698Z,62724.09
2023-10-24T14:24:02.785Z,62731.75
2023-10-24T14:26:31.067Z,62750.72
2023-10-24T14:28:59.330Z,62749.59
2023-10-24T14:31:27.590Z,62723.06
2023-10-24T14:33:57.984Z,62747.53
2023-10-24T14:36:26.134Z,62735.47
2023-10-24T14:38:56.058Z,62721.00
2023-10-24T14:41:24.347Z,62701.91
2023-10-24T14:43:52.563Z,62695.34
2023-10-24T14:46:21.011Z,62705.66
2023-10-24T14:48:48.607Z,62673.16
2023-10-24T14:51:16.801Z,62679.59
2023-10-24T14:53:45.136Z,62663.94
2023-10-24T14:56:14.777Z,62670.47
2023-10-24T14:58:43.004Z,62694.88
2023-10-24T15:01:12.161Z,62688.34
2023-10-24T15:03:41.325Z,62700.75
2023-10-24T15:06:09.589Z,62710.06
2023-10-24T15:08:37.740Z,62706.78
2023-10-24T15:11:06.329Z,62700.22
2023-10-24T15:13:36.491Z,62702.47
2023-10-24T15:16:04.711Z,62699.25
2023-10-24T15:18:35.396Z,62688.28
2023-10-24T15:21:05.892Z,62675.94
2023-10-24T15:23:34.124Z,62671.41
2023-10-24T15:26:03.099Z,62655.88
2023-10-24T15:28:31.504Z,62663.88
2023-10-24T15:31:01.029Z,62654.66
2023-10-24T15:33:29.130Z,62673.78
2023-10-24T15:35:58.949Z,62672.06
2023-10-24T15:38:28.457Z,62659.09
2023-10-24T15:40:57.096Z,62653.06
2023-10-24T15:43:25.622Z,62666.59
2023-10-24T15:46:19.575Z,62655.72
2023-10-24T15:48:48.156Z,62626.13
2023-10-24T15:51:17.310Z,62663.88
2023-10-24T15:53:45.472Z,62630.25
2023-10-24T15:56:13.660Z,62644.94
2023-10-24T15:58:42.512Z,62652.53
2023-10-24T16:01:16.408Z,62641.22
2023-10-24T16:03:45.301Z,62636.13
2023-10-24T16:06:15.446Z,62625.91
2023-10-24T16:08:43.566Z,62629.22
2023-10-24T16:11:11.850Z,62645.47
2023-10-24T16:13:40.032Z,62641.06
2023-10-24T16:16:08.610Z,62631.94
2023-10-24T16:18:38.286Z,62608.16
2023-10-24T16:21:06.626Z,62623.25
2023-10-24T16:23:34.943Z,62628.19
2023-10-24T16:26:05.728Z,62630.38
2023-10-24T16:28:34.104Z,62624.84
2023-10-24T16:31:02.196Z,62625.44
2023-10-24T16:33:30.620Z,62618.38
2023-10-24T16:36:02.442Z,62615.66
2023-10-24T16:38:32.790Z,62617.84
2023-10-24T16:41:02.361Z,62603.22
2023-10-24T16:43:31.869Z,62615.75
2023-10-24T16:46:00.378Z,62613.97
2023-10-24T16:48:29.592Z,62611.81
2023-10-24T16:50:59.817Z,62592.91
2023-10-24T16:53:28.383Z,62604.28
2023-10-24T16:55:57.545Z,62591.81
2023-10-24T16:58:26.524Z,62597.78
2023-10-24T17:00:56.877Z,62594.06
2023-10-24T17:03:25.316Z,62589.19
2023-10-24T17:05:53.517Z,62585.34
2023-10-24T17:08:23.017Z,62578.81
2023-10-24T17:11:01.635Z,62574.41
2023-10-24T17:13:29.887Z,62574.00
2023-10-24T17:15:58.365Z,62584.25
2023-10-24T17:18:26.579Z,62592.28
2023-10-24T17:20:54.657Z,62586.88
2023-10-24T17:23:29.138Z,62586.88
2023-10-24T17:25:58.464Z,62581.53
2023-10-24T17:28:27.422Z,62584.72
2023-10-24T17:30:55.611Z,62569.66
2023-10-24T17:33:23.799Z,62576.06
2023-10-24T17:35:53.426Z,62567.44
2023-10-24T17:38:21.592Z,62578.69
2023-10-24T17:40:52.384Z,62566.38
2023-10-24T17:43:20.691Z,62558.31
2023-10-24T17:45:48.844Z,62550.16
2023-10-24T17:48:17.099Z,62563.59
2023-10-24T17:50:45.514Z,62562.09
2023-10-24T17:53:13.700Z,62560.38
2023-10-24T17:55:42.789Z,62567.97
2023-10-24T17:58:12.266Z,62564.72
2023-10-24T18:00:40.353Z,62563.09
2023-10-24T18:03:08.458Z,62550.16
2023-10-24T18:05:39.200Z,62528.63
2023-10-24T18:08:07.714Z,62557.63
2023-10-24T18:10:35.902Z,62558.72
2023-10-24T18:13:04.006Z,62550.09
2023-10-24T18:15:34.871Z,62556.53
2023-10-24T18:18:03.626Z,62554.38
2023-10-24T18:20:35.423Z,62546.31
2023-10-24T18:23:04.538Z,62556.53
2023-10-24T18:25:32.683Z,62532.22
2023-10-24T18:28:00.711Z,62553.84
2023-10-24T18:30:28.810Z,62540.88
2023-10-24T18:32:58.672Z,62543.06
2023-10-24T18:35:26.770Z,62522.50
2023-10-24T18:37:54.848Z,62531.69
2023-10-24T18:40:22.977Z,62540.88
2023-10-24T18:42:56.156Z,62526.19
2023-10-24T18:45:25.684Z,62519.22
2023-10-24T18:47:53.970Z,62529.59
2023-10-24T18:50:26.186Z,62503.50
2023-10-24T18:52:54.814Z,62528.38
2023-10-24T18:55:22.844Z,62518.16
2023-10-24T18:57:50.995Z,62520.78
2023-10-24T19:00:20.100Z,62518.69
2023-10-24T19:05:19.854Z,62514.91
2023-10-24T19:07:49.685Z,62513.19
2023-10-24T19:10:18.364Z,62479.16
2023-10-24T19:12:46.030Z,62506.22
2023-10-24T19:15:14.949Z,62497.06
2023-10-24T19:17:43.435Z,62498.16
2023-10-24T19:20:12.165Z,62500.25
2023-10-24T19:22:40.631Z,62501.88
2023-10-24T19:25:13.497Z,62499.09
2023-10-24T19:27:42.197Z,62497.00
2023-10-24T19:30:11.144Z,62495.47
2023-10-24T19:32:39.617Z,62495.38
2023-10-24T19:35:09.893Z,62493.28
2023-10-24T19:37:40.343Z,62498.09
2023-10-24T19:40:12.099Z,62486.19
2023-10-24T19:42:40.708Z,62498.50
2023-10-24T19:45:10.597Z,62475.41
2023-10-24T19:47:41.199Z,62494.84
2023-10-24T19:50:10.407Z,62503.44
2023-10-24T19:52:38.947Z,62502.91
2023-10-24T19:55:15.891Z,62495.38
2023-10-24T19:57:56.859Z,62500.19
2023-10-24T20:00:25.941Z,62492.13
2023-10-24T20:02:54.625Z,62499.72
2023-10-24T20:05:23.440Z,62499.63
2023-10-24T20:07:56.684Z,62484.56
2023-10-24T20:11:34.648Z,62507.31
2023-10-24T20:13:18.706Z,62509.38
2023-10-24T20:15:47.780Z,62498.16
2023-10-24T20:18:16.350Z,62497.00
2023-10-24T20:20:45.026Z,62500.81
2023-10-24T20:23:13.779Z,62506.22
2023-10-24T20:25:42.710Z,62495.94
2023-10-24T20:28:12.231Z,62499.16
2023-10-24T20:30:41.828Z,62495.47
2023-10-24T20:33:09.968Z,62500.75
2023-10-24T20:35:39.485Z,62495.38
2023-10-24T20:38:09.558Z,62493.75
2023-10-24T20:40:38.506Z,62491.00
2023-10-24T20:43:07.623Z,62481.31
2023-10-24T20:45:39.162Z,62481.31
2023-10-24T20:48:11.164Z,62479.69
2023-10-24T20:50:42.573Z,62478.66
2023-10-24T20:53:11.025Z,62479.22
2023-10-24T20:55:40.845Z,62480.16
2023-10-24T20:58:09.232Z,62474.81
2023-10-24T21:00:38.533Z,62481.91
2023-10-24T21:03:08.149Z,62478.59
2023-10-24T21:05:37.172Z,62480.22
2023-10-24T21:08:05.591Z,62471.09
2023-10-24T21:10:36.545Z,62484.47
2023-10-24T21:13:04.759Z,62483.94
2023-10-24T21:15:33.776Z,62474.28
2023-10-24T21:18:01.998Z,62472.63
2023-10-24T21:20:31.601Z,62464.00
2023-10-24T21:23:00.413Z,62465.13
2023-10-24T21:25:30.779Z,62466.16
2023-10-24T21:27:59.391Z,62434.41
2023-10-24T21:30:28.845Z,62468.31
2023-10-24T21:32:56.946Z,62463.50
2023-10-24T21:35:26.272Z,62461.19
2023-10-24T21:37:55.802Z,62455.38
2023-10-24T21:40:25.232Z,62435.84
2023-10-24T21:42:53.554Z,62446.72
2023-10-24T21:45:24.842Z,62446.59
2023-10-24T21:47:54.426Z,62446.03
2023-10-24T21:50:22.704Z,62441.25
2023-10-24T21:52:51.893Z,62433.19
2023-10-24T21:55:21.548Z,62442.81
2023-10-24T21:57:50.865Z,62437.94
2023-10-24T22:00:25.481Z,62433.13
2023-10-24T22:02:55.429Z,62436.78
2023-10-24T22:05:25.323Z,62431.97
2023-10-24T22:07:55.886Z,62434.69
2023-10-24T22:10:25.498Z,62437.47
2023-10-24T22:12:54.599Z,62432.13
2023-10-24T22:15:23.539Z,62440.72
2023-10-24T22:17:54.429Z,62438.00
2023-10-24T22:20:23.320Z,62435.84
2023-10-24T22:22:51.485Z,62433.66
2023-10-24T22:25:19.758Z,62430.50
2023-10-24T22:28:02.369Z,62413.72
2023-10-24T22:30:32.943Z,62433.13
2023-10-24T22:33:01.213Z,62428.78
2023-10-24T22:35:29.326Z,62422.31
2023-10-24T22:37:57.404Z,62406.69
2023-10-24T22:40:25.401Z,62396.41
2023-10-24T22:42:54.968Z,62402.28
2023-10-24T22:45:23.062Z,62400.13
2023-10-24T22:47:51.380Z,62392.41
2023-10-24T22:50:21.991Z,62401.69
2023-10-24T22:52:51.690Z,62391.47
2023-10-24T22:55:20.134Z,62396.88
2023-10-24T22:57:48.495Z,62397.34
2023-10-24T23:00:18.686Z,62391.47
2023-10-24T23:02:47.367Z,62380.19
2023-10-24T23:05:16.096Z,62381.19
2023-10-24T23:07:44.174Z,62375.31
2023-10-24T23:10:12.498Z,62361.78
2023-10-24T23:12:40.742Z,62373.53
2023-10-24T23:15:09.919Z,62366.03
2023-10-24T23:17:39.337Z,62372.47
2023-10-24T23:20:09.246Z,62370.91
2023-10-24T23:22:37.332Z,62371.31
2023-10-24T23:25:06.003Z,62364.97
2023-10-24T23:27:34.125Z,62367.75
2023-10-24T23:30:02.189Z,62371.94
2023-10-24T23:32:30.258Z,62370.84
2023-10-24T23:34:59.692Z,62355.16
2023-10-24T23:37:27.740Z,62360.09
2023-10-24T23:39:55.793Z,62361.16
2023-10-24T23:42:23.925Z,62370.78
2023-10-24T23:44:51.962Z,62361.16
2023-10-24T23:47:20.024Z,62343.84
2023-10-24T23:49:48.058Z,62351.44
2023-10-24T23:52:17.540Z,62366.50
2023-10-24T23:54:45.831Z,62364.97
2023-10-24T23:57:13.881Z,62362.88
2023-10-24T23:59:42.241Z,62366.50
